sensor_id;sensor_type;location;lat;lon;timestamp;P1;durP1;ratioP1;P2;durP2;ratioP2
5351;SDS011;2698;51.454;6.736;2023-05-31T00:01:45;14.73;;;9.10;;
5351;SDS011;2698;51.454;6.736;2023-05-31T00:04:12;14.87;;;10.07;;
5351;SDS011;2698;51.454;6.736;2023-05-31T00:06:41;15.90;;;9.13;;
5351;SDS011;2698;51.454;6.736;2023-05-31T00:09:09;19.90;;;9.30;;
5351;SDS011;2698;51.454;6.736;2023-05-31T00:11:36;15.80;;;8.83;;
5351;SDS011;2698;51.454;6.736;2023-05-31T00:14:04;18.93;;;8.90;;
5351;SDS011;2698;51.454;6.736;2023-05-31T00:16:31;15.80;;;9.30;;
5351;SDS011;2698;51.454;6.736;2023-05-31T00:18:58;13.17;;;9.20;;
5351;SDS011;2698;51.454;6.736;2023-05-31T00:21:25;13.77;;;10.00;;
5351;SDS011;2698;51.454;6.736;2023-05-31T00:23:53;12.33;;;10.23;;
5351;SDS011;2698;51.454;6.736;2023-05-31T00:26:20;14.67;;;10.57;;
5351;SDS011;2698;51.454;6.736;2023-05-31T00:28:47;11.80;;;9.53;;
5351;SDS011;2698;51.454;6.736;2023-05-31T00:31:15;15.60;;;8.87;;
5351;SDS011;2698;51.454;6.736;2023-05-31T00:33:42;12.50;;;9.70;;
5351;SDS011;2698;51.454;6.736;2023-05-31T00:36:10;11.17;;;9.00;;
5351;SDS011;2698;51.454;6.736;2023-05-31T00:38:37;14.40;;;10.37;;
5351;SDS011;2698;51.454;6.736;2023-05-31T00:41:06;11.90;;;8.57;;
5351;SDS011;2698;51.454;6.736;2023-05-31T00:43:33;16.23;;;9.87;;
5351;SDS011;2698;51.454;6.736;2023-05-31T00:46:00;11.03;;;9.33;;
5351;SDS011;2698;51.454;6.736;2023-05-31T00:48:27;16.10;;;10.27;;
5351;SDS011;2698;51.454;6.736;2023-05-31T00:50:55;14.47;;;9.10;;
5351;SDS011;2698;51.454;6.736;2023-05-31T00:53:22;11.10;;;10.00;;
5351;SDS011;2698;51.454;6.736;2023-05-31T00:55:49;15.43;;;10.20;;
5351;SDS011;2698;51.454;6.736;2023-05-31T00:58:19;12.43;;;8.70;;
5351;SDS011;2698;51.454;6.736;2023-05-31T01:00:47;12.40;;;11.10;;
5351;SDS011;2698;51.454;6.736;2023-05-31T01:03:14;12.87;;;10.30;;
5351;SDS011;2698;51.454;6.736;2023-05-31T01:05:41;11.40;;;9.73;;
5351;SDS011;2698;51.454;6.736;2023-05-31T01:08:09;17.67;;;9.87;;
5351;SDS011;2698;51.454;6.736;2023-05-31T01:10:36;11.17;;;9.93;;
5351;SDS011;2698;51.454;6.736;2023-05-31T01:13:05;10.43;;;8.93;;
5351;SDS011;2698;51.454;6.736;2023-05-31T01:15:37;10.93;;;9.80;;
5351;SDS011;2698;51.454;6.736;2023-05-31T01:18:06;11.00;;;9.43;;
5351;SDS011;2698;51.454;6.736;2023-05-31T01:20:37;12.83;;;10.77;;
5351;SDS011;2698;51.454;6.736;2023-05-31T01:23:11;11.80;;;8.83;;
5351;SDS011;2698;51.454;6.736;2023-05-31T01:28:33;19.30;;;10.37;;
5351;SDS011;2698;51.454;6.736;2023-05-31T01:31:03;13.33;;;9.90;;
5351;SDS011;2698;51.454;6.736;2023-05-31T01:33:31;10.23;;;9.23;;
5351;SDS011;2698;51.454;6.736;2023-05-31T01:35:59;13.57;;;10.07;;
5351;SDS011;2698;51.454;6.736;2023-05-31T01:38:26;15.03;;;10.53;;
5351;SDS011;2698;51.454;6.736;2023-05-31T01:40:53;12.60;;;10.53;;
5351;SDS011;2698;51.454;6.736;2023-05-31T01:43:22;18.53;;;10.27;;
5351;SDS011;2698;51.454;6.736;2023-05-31T01:45:50;16.97;;;12.80;;
5351;SDS011;2698;51.454;6.736;2023-05-31T01:48:18;13.70;;;9.97;;
5351;SDS011;2698;51.454;6.736;2023-05-31T01:50:45;13.90;;;11.27;;
5351;SDS011;2698;51.454;6.736;2023-05-31T01:53:12;14.97;;;11.27;;
5351;SDS011;2698;51.454;6.736;2023-05-31T01:55:39;12.20;;;9.60;;
5351;SDS011;2698;51.454;6.736;2023-05-31T01:58:08;14.83;;;9.97;;
5351;SDS011;2698;51.454;6.736;2023-05-31T02:00:36;17.50;;;11.33;;
5351;SDS011;2698;51.454;6.736;2023-05-31T02:03:05;12.10;;;10.13;;
5351;SDS011;2698;51.454;6.736;2023-05-31T02:05:32;15.07;;;11.30;;
5351;SDS011;2698;51.454;6.736;2023-05-31T02:07:59;13.03;;;9.93;;
5351;SDS011;2698;51.454;6.736;2023-05-31T02:10:26;18.83;;;9.97;;
5351;SDS011;2698;51.454;6.736;2023-05-31T02:12:53;14.93;;;10.77;;
5351;SDS011;2698;51.454;6.736;2023-05-31T02:15:21;18.60;;;11.27;;
5351;SDS011;2698;51.454;6.736;2023-05-31T02:17:48;12.13;;;10.50;;
5351;SDS011;2698;51.454;6.736;2023-05-31T02:20:17;13.90;;;11.40;;
5351;SDS011;2698;51.454;6.736;2023-05-31T02:22:45;14.27;;;11.03;;
5351;SDS011;2698;51.454;6.736;2023-05-31T02:25:13;17.70;;;11.17;;
5351;SDS011;2698;51.454;6.736;2023-05-31T02:27:40;17.23;;;11.50;;
5351;SDS011;2698;51.454;6.736;2023-05-31T02:30:08;18.43;;;11.53;;
5351;SDS011;2698;51.454;6.736;2023-05-31T02:32:36;14.13;;;11.90;;
5351;SDS011;2698;51.454;6.736;2023-05-31T02:35:04;13.70;;;10.50;;
5351;SDS011;2698;51.454;6.736;2023-05-31T02:37:32;14.23;;;10.87;;
5351;SDS011;2698;51.454;6.736;2023-05-31T02:40:00;12.73;;;11.30;;
5351;SDS011;2698;51.454;6.736;2023-05-31T02:42:31;15.87;;;11.47;;
5351;SDS011;2698;51.454;6.736;2023-05-31T02:44:58;15.50;;;11.70;;
5351;SDS011;2698;51.454;6.736;2023-05-31T02:47:25;21.80;;;12.23;;
5351;SDS011;2698;51.454;6.736;2023-05-31T02:49:52;22.33;;;12.37;;
5351;SDS011;2698;51.454;6.736;2023-05-31T02:52:19;17.70;;;11.47;;
5351;SDS011;2698;51.454;6.736;2023-05-31T02:54:50;18.23;;;12.63;;
5351;SDS011;2698;51.454;6.736;2023-05-31T02:57:17;17.63;;;11.50;;
5351;SDS011;2698;51.454;6.736;2023-05-31T02:59:45;16.50;;;11.70;;
5351;SDS011;2698;51.454;6.736;2023-05-31T03:02:12;13.63;;;11.30;;
5351;SDS011;2698;51.454;6.736;2023-05-31T03:04:39;15.60;;;12.53;;
5351;SDS011;2698;51.454;6.736;2023-05-31T03:07:08;17.90;;;12.27;;
5351;SDS011;2698;51.454;6.736;2023-05-31T03:09:35;20.03;;;12.53;;
5351;SDS011;2698;51.454;6.736;2023-05-31T03:12:04;16.30;;;13.37;;
5351;SDS011;2698;51.454;6.736;2023-05-31T03:14:31;21.70;;;13.63;;
5351;SDS011;2698;51.454;6.736;2023-05-31T03:16:58;25.73;;;14.00;;
5351;SDS011;2698;51.454;6.736;2023-05-31T03:19:25;28.70;;;14.20;;
5351;SDS011;2698;51.454;6.736;2023-05-31T03:21:53;40.30;;;14.97;;
5351;SDS011;2698;51.454;6.736;2023-05-31T03:24:20;25.67;;;13.00;;
5351;SDS011;2698;51.454;6.736;2023-05-31T03:26:47;34.27;;;16.27;;
5351;SDS011;2698;51.454;6.736;2023-05-31T03:29:15;42.17;;;13.13;;
5351;SDS011;2698;51.454;6.736;2023-05-31T03:31:42;31.33;;;14.40;;
5351;SDS011;2698;51.454;6.736;2023-05-31T03:34:10;25.77;;;13.03;;
5351;SDS011;2698;51.454;6.736;2023-05-31T03:36:37;35.67;;;15.43;;
5351;SDS011;2698;51.454;6.736;2023-05-31T03:39:04;38.70;;;14.73;;
5351;SDS011;2698;51.454;6.736;2023-05-31T03:41:32;43.23;;;16.50;;
5351;SDS011;2698;51.454;6.736;2023-05-31T03:43:59;38.80;;;14.13;;
5351;SDS011;2698;51.454;6.736;2023-05-31T03:46:27;31.50;;;14.70;;
5351;SDS011;2698;51.454;6.736;2023-05-31T03:48:55;24.47;;;15.30;;
5351;SDS011;2698;51.454;6.736;2023-05-31T03:51:22;21.57;;;13.43;;
5351;SDS011;2698;51.454;6.736;2023-05-31T03:53:49;18.43;;;13.17;;
5351;SDS011;2698;51.454;6.736;2023-05-31T03:56:16;17.37;;;14.30;;
5351;SDS011;2698;51.454;6.736;2023-05-31T03:58:43;23.80;;;15.13;;
5351;SDS011;2698;51.454;6.736;2023-05-31T04:01:10;30.17;;;13.77;;
5351;SDS011;2698;51.454;6.736;2023-05-31T04:03:39;27.40;;;13.87;;
5351;SDS011;2698;51.454;6.736;2023-05-31T04:06:06;24.00;;;14.60;;
5351;SDS011;2698;51.454;6.736;2023-05-31T04:08:33;26.10;;;14.10;;
5351;SDS011;2698;51.454;6.736;2023-05-31T04:11:00;23.53;;;15.77;;
5351;SDS011;2698;51.454;6.736;2023-05-31T04:13:27;22.07;;;14.87;;
5351;SDS011;2698;51.454;6.736;2023-05-31T04:15:54;24.67;;;16.20;;
5351;SDS011;2698;51.454;6.736;2023-05-31T04:18:21;27.60;;;14.90;;
5351;SDS011;2698;51.454;6.736;2023-05-31T04:20:51;28.57;;;14.87;;
5351;SDS011;2698;51.454;6.736;2023-05-31T04:23:18;30.27;;;15.50;;
5351;SDS011;2698;51.454;6.736;2023-05-31T04:25:45;26.93;;;14.13;;
5351;SDS011;2698;51.454;6.736;2023-05-31T04:28:13;29.90;;;14.77;;
5351;SDS011;2698;51.454;6.736;2023-05-31T04:30:40;56.80;;;17.00;;
5351;SDS011;2698;51.454;6.736;2023-05-31T04:33:09;60.17;;;17.83;;
5351;SDS011;2698;51.454;6.736;2023-05-31T04:35:36;39.70;;;15.20;;
5351;SDS011;2698;51.454;6.736;2023-05-31T04:38:04;51.67;;;17.70;;
5351;SDS011;2698;51.454;6.736;2023-05-31T04:40:33;37.37;;;16.73;;
5351;SDS011;2698;51.454;6.736;2023-05-31T04:43:00;49.40;;;17.27;;
5351;SDS011;2698;51.454;6.736;2023-05-31T04:45:27;32.03;;;16.27;;
5351;SDS011;2698;51.454;6.736;2023-05-31T04:47:56;30.97;;;14.87;;
5351;SDS011;2698;51.454;6.736;2023-05-31T04:50:23;40.07;;;17.47;;
5351;SDS011;2698;51.454;6.736;2023-05-31T04:52:50;32.43;;;16.17;;
5351;SDS011;2698;51.454;6.736;2023-05-31T04:55:19;42.97;;;17.67;;
5351;SDS011;2698;51.454;6.736;2023-05-31T04:57:46;41.60;;;16.43;;
5351;SDS011;2698;51.454;6.736;2023-05-31T05:00:13;48.93;;;17.67;;
5351;SDS011;2698;51.454;6.736;2023-05-31T05:02:41;27.97;;;15.20;;
5351;SDS011;2698;51.454;6.736;2023-05-31T05:05:08;39.83;;;14.47;;
5351;SDS011;2698;51.454;6.736;2023-05-31T05:07:35;40.40;;;14.20;;
5351;SDS011;2698;51.454;6.736;2023-05-31T05:10:03;34.70;;;13.90;;
5351;SDS011;2698;51.454;6.736;2023-05-31T05:12:31;38.57;;;13.97;;
5351;SDS011;2698;51.454;6.736;2023-05-31T05:14:58;39.03;;;14.33;;
5351;SDS011;2698;51.454;6.736;2023-05-31T05:17:25;45.40;;;13.00;;
5351;SDS011;2698;51.454;6.736;2023-05-31T05:19:53;44.63;;;14.37;;
5351;SDS011;2698;51.454;6.736;2023-05-31T05:22:20;48.20;;;14.87;;
5351;SDS011;2698;51.454;6.736;2023-05-31T05:24:47;25.53;;;13.73;;
5351;SDS011;2698;51.454;6.736;2023-05-31T05:27:14;30.20;;;13.30;;
5351;SDS011;2698;51.454;6.736;2023-05-31T05:29:42;31.90;;;12.77;;
5351;SDS011;2698;51.454;6.736;2023-05-31T05:32:09;24.00;;;13.13;;
5351;SDS011;2698;51.454;6.736;2023-05-31T05:34:36;29.20;;;12.97;;
5351;SDS011;2698;51.454;6.736;2023-05-31T05:37:04;23.60;;;11.70;;
5351;SDS011;2698;51.454;6.736;2023-05-31T05:39:31;25.10;;;11.00;;
5351;SDS011;2698;51.454;6.736;2023-05-31T05:41:58;26.63;;;12.63;;
5351;SDS011;2698;51.454;6.736;2023-05-31T05:44:26;18.03;;;12.07;;
5351;SDS011;2698;51.454;6.736;2023-05-31T05:46:54;24.23;;;12.50;;
5351;SDS011;2698;51.454;6.736;2023-05-31T05:49:22;21.27;;;11.27;;
5351;SDS011;2698;51.454;6.736;2023-05-31T05:51:50;22.03;;;11.27;;
5351;SDS011;2698;51.454;6.736;2023-05-31T05:54:17;22.07;;;12.23;;
5351;SDS011;2698;51.454;6.736;2023-05-31T05:56:44;20.70;;;10.90;;
5351;SDS011;2698;51.454;6.736;2023-05-31T05:59:11;36.83;;;12.10;;
5351;SDS011;2698;51.454;6.736;2023-05-31T06:01:38;25.77;;;12.27;;
5351;SDS011;2698;51.454;6.736;2023-05-31T06:04:07;37.03;;;11.60;;
5351;SDS011;2698;51.454;6.736;2023-05-31T06:06:34;23.50;;;11.20;;
5351;SDS011;2698;51.454;6.736;2023-05-31T06:09:01;25.60;;;10.90;;
5351;SDS011;2698;51.454;6.736;2023-05-31T06:11:28;31.27;;;11.30;;
5351;SDS011;2698;51.454;6.736;2023-05-31T06:13:55;22.23;;;11.13;;
5351;SDS011;2698;51.454;6.736;2023-05-31T06:16:22;21.17;;;10.17;;
5351;SDS011;2698;51.454;6.736;2023-05-31T06:18:49;28.27;;;11.50;;
5351;SDS011;2698;51.454;6.736;2023-05-31T06:21:18;25.43;;;10.33;;
5351;SDS011;2698;51.454;6.736;2023-05-31T06:23:45;22.00;;;10.50;;
5351;SDS011;2698;51.454;6.736;2023-05-31T06:26:12;30.80;;;9.97;;
5351;SDS011;2698;51.454;6.736;2023-05-31T06:28:39;22.03;;;10.03;;
5351;SDS011;2698;51.454;6.736;2023-05-31T06:31:06;18.23;;;10.47;;
5351;SDS011;2698;51.454;6.736;2023-05-31T06:33:34;24.07;;;9.90;;
5351;SDS011;2698;51.454;6.736;2023-05-31T06:36:01;22.93;;;10.20;;
5351;SDS011;2698;51.454;6.736;2023-05-31T06:38:30;23.23;;;10.77;;
5351;SDS011;2698;51.454;6.736;2023-05-31T06:40:58;35.67;;;12.43;;
5351;SDS011;2698;51.454;6.736;2023-05-31T06:43:25;18.07;;;9.73;;
5351;SDS011;2698;51.454;6.736;2023-05-31T06:45:53;15.87;;;10.33;;
5351;SDS011;2698;51.454;6.736;2023-05-31T06:48:20;15.80;;;9.73;;
5351;SDS011;2698;51.454;6.736;2023-05-31T06:50:47;24.43;;;9.70;;
5351;SDS011;2698;51.454;6.736;2023-05-31T06:53:14;35.00;;;15.10;;
5351;SDS011;2698;51.454;6.736;2023-05-31T06:55:42;30.27;;;11.80;;
5351;SDS011;2698;51.454;6.736;2023-05-31T06:58:09;21.70;;;10.57;;
5351;SDS011;2698;51.454;6.736;2023-05-31T07:00:36;17.30;;;10.80;;
5351;SDS011;2698;51.454;6.736;2023-05-31T07:03:04;21.60;;;10.43;;
5351;SDS011;2698;51.454;6.736;2023-05-31T07:05:31;14.50;;;10.23;;
5351;SDS011;2698;51.454;6.736;2023-05-31T07:07:59;19.30;;;9.47;;
5351;SDS011;2698;51.454;6.736;2023-05-31T07:10:26;14.60;;;9.73;;
5351;SDS011;2698;51.454;6.736;2023-05-31T07:12:54;20.13;;;8.90;;
5351;SDS011;2698;51.454;6.736;2023-05-31T07:15:21;22.27;;;9.70;;
5351;SDS011;2698;51.454;6.736;2023-05-31T07:17:49;20.13;;;9.13;;
5351;SDS011;2698;51.454;6.736;2023-05-31T07:20:16;14.83;;;8.43;;
5351;SDS011;2698;51.454;6.736;2023-05-31T07:22:43;27.77;;;8.13;;
5351;SDS011;2698;51.454;6.736;2023-05-31T07:25:10;13.40;;;7.97;;
5351;SDS011;2698;51.454;6.736;2023-05-31T07:27:37;27.37;;;8.20;;
5351;SDS011;2698;51.454;6.736;2023-05-31T07:30:07;29.60;;;8.63;;
5351;SDS011;2698;51.454;6.736;2023-05-31T07:32:34;18.83;;;8.90;;
5351;SDS011;2698;51.454;6.736;2023-05-31T07:35:01;23.73;;;9.90;;
5351;SDS011;2698;51.454;6.736;2023-05-31T07:37:28;15.93;;;9.77;;
5351;SDS011;2698;51.454;6.736;2023-05-31T07:39:56;23.13;;;9.30;;
5351;SDS011;2698;51.454;6.736;2023-05-31T07:42:23;37.47;;;10.03;;
5351;SDS011;2698;51.454;6.736;2023-05-31T07:44:50;27.53;;;9.10;;
5351;SDS011;2698;51.454;6.736;2023-05-31T07:47:19;15.90;;;8.03;;
5351;SDS011;2698;51.454;6.736;2023-05-31T07:49:47;32.53;;;9.50;;
5351;SDS011;2698;51.454;6.736;2023-05-31T07:52:16;25.40;;;8.57;;
5351;SDS011;2698;51.454;6.736;2023-05-31T07:54:46;28.63;;;8.37;;
5351;SDS011;2698;51.454;6.736;2023-05-31T07:57:13;20.33;;;8.70;;
5351;SDS011;2698;51.454;6.736;2023-05-31T07:59:41;25.37;;;9.60;;
5351;SDS011;2698;51.454;6.736;2023-05-31T08:02:08;13.10;;;7.87;;
5351;SDS011;2698;51.454;6.736;2023-05-31T08:04:36;10.10;;;6.90;;
5351;SDS011;2698;51.454;6.736;2023-05-31T08:07:03;19.60;;;7.90;;
5351;SDS011;2698;51.454;6.736;2023-05-31T08:09:31;20.97;;;8.37;;
5351;SDS011;2698;51.454;6.736;2023-05-31T08:11:58;24.60;;;9.33;;
5351;SDS011;2698;51.454;6.736;2023-05-31T08:14:26;14.40;;;7.60;;
5351;SDS011;2698;51.454;6.736;2023-05-31T08:16:53;17.37;;;7.97;;
5351;SDS011;2698;51.454;6.736;2023-05-31T08:19:20;10.63;;;6.03;;
5351;SDS011;2698;51.454;6.736;2023-05-31T08:21:49;16.37;;;7.63;;
5351;SDS011;2698;51.454;6.736;2023-05-31T08:24:17;22.03;;;6.60;;
5351;SDS011;2698;51.454;6.736;2023-05-31T08:26:44;13.97;;;6.80;;
5351;SDS011;2698;51.454;6.736;2023-05-31T08:29:12;18.27;;;7.33;;
5351;SDS011;2698;51.454;6.736;2023-05-31T08:31:39;23.50;;;8.00;;
5351;SDS011;2698;51.454;6.736;2023-05-31T08:34:06;16.33;;;7.60;;
5351;SDS011;2698;51.454;6.736;2023-05-31T08:36:33;13.30;;;7.20;;
5351;SDS011;2698;51.454;6.736;2023-05-31T08:39:02;24.40;;;9.37;;
5351;SDS011;2698;51.454;6.736;2023-05-31T08:41:31;14.20;;;5.60;;
5351;SDS011;2698;51.454;6.736;2023-05-31T08:44:00;10.53;;;6.40;;
5351;SDS011;2698;51.454;6.736;2023-05-31T08:46:27;15.07;;;6.30;;
5351;SDS011;2698;51.454;6.736;2023-05-31T08:48:56;14.30;;;5.60;;
5351;SDS011;2698;51.454;6.736;2023-05-31T08:51:27;24.57;;;7.80;;
5351;SDS011;2698;51.454;6.736;2023-05-31T08:53:55;18.57;;;5.60;;
5351;SDS011;2698;51.454;6.736;2023-05-31T08:56:25;17.57;;;6.53;;
5351;SDS011;2698;51.454;6.736;2023-05-31T08:58:52;25.60;;;6.30;;
5351;SDS011;2698;51.454;6.736;2023-05-31T09:01:20;18.67;;;5.60;;
5351;SDS011;2698;51.454;6.736;2023-05-31T09:03:47;14.30;;;5.83;;
5351;SDS011;2698;51.454;6.736;2023-05-31T09:06:14;8.53;;;5.47;;
5351;SDS011;2698;51.454;6.736;2023-05-31T09:08:41;13.20;;;5.50;;
5351;SDS011;2698;51.454;6.736;2023-05-31T09:11:09;16.13;;;6.40;;
5351;SDS011;2698;51.454;6.736;2023-05-31T09:13:38;22.47;;;6.10;;
5351;SDS011;2698;51.454;6.736;2023-05-31T09:16:05;24.50;;;6.00;;
5351;SDS011;2698;51.454;6.736;2023-05-31T09:18:35;19.90;;;5.87;;
5351;SDS011;2698;51.454;6.736;2023-05-31T09:21:06;7.90;;;5.17;;
5351;SDS011;2698;51.454;6.736;2023-05-31T09:23:34;12.67;;;4.30;;
5351;SDS011;2698;51.454;6.736;2023-05-31T09:26:02;18.53;;;5.60;;
5351;SDS011;2698;51.454;6.736;2023-05-31T09:28:32;10.50;;;4.23;;
5351;SDS011;2698;51.454;6.736;2023-05-31T09:31:03;13.67;;;4.80;;
5351;SDS011;2698;51.454;6.736;2023-05-31T09:33:37;10.53;;;4.10;;
5351;SDS011;2698;51.454;6.736;2023-05-31T09:36:06;21.47;;;6.37;;
5351;SDS011;2698;51.454;6.736;2023-05-31T09:38:33;16.20;;;4.80;;
5351;SDS011;2698;51.454;6.736;2023-05-31T09:41:18;8.20;;;4.70;;
5351;SDS011;2698;51.454;6.736;2023-05-31T09:43:46;20.93;;;6.43;;
5351;SDS011;2698;51.454;6.736;2023-05-31T09:46:15;17.10;;;6.63;;
5351;SDS011;2698;51.454;6.736;2023-05-31T09:48:43;10.63;;;4.03;;
5351;SDS011;2698;51.454;6.736;2023-05-31T09:51:11;14.00;;;5.17;;
5351;SDS011;2698;51.454;6.736;2023-05-31T09:53:39;29.27;;;8.90;;
5351;SDS011;2698;51.454;6.736;2023-05-31T09:56:08;22.40;;;8.00;;
5351;SDS011;2698;51.454;6.736;2023-05-31T09:58:35;13.57;;;5.13;;
5351;SDS011;2698;51.454;6.736;2023-05-31T10:01:02;21.23;;;4.00;;
5351;SDS011;2698;51.454;6.736;2023-05-31T10:03:31;15.83;;;4.90;;
5351;SDS011;2698;51.454;6.736;2023-05-31T10:05:59;45.73;;;21.20;;
5351;SDS011;2698;51.454;6.736;2023-05-31T10:08:27;20.20;;;6.70;;
5351;SDS011;2698;51.454;6.736;2023-05-31T10:10:56;12.43;;;4.67;;
5351;SDS011;2698;51.454;6.736;2023-05-31T10:13:24;13.20;;;3.50;;
5351;SDS011;2698;51.454;6.736;2023-05-31T10:15:54;15.63;;;3.73;;
5351;SDS011;2698;51.454;6.736;2023-05-31T10:18:21;10.53;;;4.90;;
5351;SDS011;2698;51.454;6.736;2023-05-31T10:20:52;17.63;;;5.50;;
5351;SDS011;2698;51.454;6.736;2023-05-31T10:23:20;18.90;;;3.70;;
5351;SDS011;2698;51.454;6.736;2023-05-31T10:25:50;12.17;;;3.90;;
5351;SDS011;2698;51.454;6.736;2023-05-31T10:28:19;6.33;;;3.93;;
5351;SDS011;2698;51.454;6.736;2023-05-31T10:30:48;8.23;;;3.27;;
5351;SDS011;2698;51.454;6.736;2023-05-31T10:33:16;7.40;;;3.57;;
5351;SDS011;2698;51.454;6.736;2023-05-31T10:35:44;6.73;;;2.83;;
5351;SDS011;2698;51.454;6.736;2023-05-31T10:38:13;30.40;;;5.07;;
5351;SDS011;2698;51.454;6.736;2023-05-31T10:40:41;16.83;;;4.07;;
5351;SDS011;2698;51.454;6.736;2023-05-31T10:43:14;8.90;;;4.67;;
5351;SDS011;2698;51.454;6.736;2023-05-31T10:45:44;15.67;;;6.00;;
5351;SDS011;2698;51.454;6.736;2023-05-31T10:48:18;13.17;;;3.90;;
5351;SDS011;2698;51.454;6.736;2023-05-31T10:50:53;9.63;;;4.43;;
5351;SDS011;2698;51.454;6.736;2023-05-31T10:53:22;10.43;;;4.37;;
5351;SDS011;2698;51.454;6.736;2023-05-31T10:55:49;11.40;;;4.70;;
5351;SDS011;2698;51.454;6.736;2023-05-31T10:58:25;14.97;;;3.63;;
5351;SDS011;2698;51.454;6.736;2023-05-31T11:00:53;15.53;;;4.00;;
5351;SDS011;2698;51.454;6.736;2023-05-31T11:03:21;12.90;;;4.40;;
5351;SDS011;2698;51.454;6.736;2023-05-31T11:05:53;6.60;;;2.90;;
5351;SDS011;2698;51.454;6.736;2023-05-31T11:08:22;19.67;;;4.20;;
5351;SDS011;2698;51.454;6.736;2023-05-31T11:10:50;7.27;;;2.93;;
5351;SDS011;2698;51.454;6.736;2023-05-31T11:13:17;18.60;;;3.77;;
5351;SDS011;2698;51.454;6.736;2023-05-31T11:15:45;6.73;;;3.50;;
5351;SDS011;2698;51.454;6.736;2023-05-31T11:18:15;7.23;;;3.70;;
5351;SDS011;2698;51.454;6.736;2023-05-31T11:20:42;7.93;;;3.93;;
5351;SDS011;2698;51.454;6.736;2023-05-31T11:26:14;13.97;;;3.80;;
5351;SDS011;2698;51.454;6.736;2023-05-31T11:28:54;30.90;;;9.60;;
5351;SDS011;2698;51.454;6.736;2023-05-31T11:34:17;6.33;;;3.40;;
5351;SDS011;2698;51.454;6.736;2023-05-31T11:36:44;8.20;;;3.37;;
5351;SDS011;2698;51.454;6.736;2023-05-31T11:39:11;10.43;;;4.13;;
5351;SDS011;2698;51.454;6.736;2023-05-31T11:41:40;24.20;;;7.60;;
5351;SDS011;2698;51.454;6.736;2023-05-31T11:44:07;8.13;;;3.47;;
5351;SDS011;2698;51.454;6.736;2023-05-31T11:46:37;19.83;;;3.93;;
5351;SDS011;2698;51.454;6.736;2023-05-31T11:49:07;16.23;;;4.63;;
5351;SDS011;2698;51.454;6.736;2023-05-31T11:51:35;4.63;;;3.33;;
5351;SDS011;2698;51.454;6.736;2023-05-31T11:54:03;9.27;;;3.57;;
5351;SDS011;2698;51.454;6.736;2023-05-31T11:56:30;11.70;;;3.33;;
5351;SDS011;2698;51.454;6.736;2023-05-31T11:58:59;11.87;;;3.53;;
5351;SDS011;2698;51.454;6.736;2023-05-31T12:01:27;11.20;;;3.70;;
5351;SDS011;2698;51.454;6.736;2023-05-31T12:03:58;16.70;;;4.00;;
5351;SDS011;2698;51.454;6.736;2023-05-31T12:06:25;18.23;;;4.10;;
5351;SDS011;2698;51.454;6.736;2023-05-31T12:08:53;11.00;;;4.50;;
5351;SDS011;2698;51.454;6.736;2023-05-31T12:11:20;17.47;;;4.67;;
5351;SDS011;2698;51.454;6.736;2023-05-31T12:13:48;15.83;;;3.20;;
5351;SDS011;2698;51.454;6.736;2023-05-31T12:16:16;13.37;;;3.30;;
5351;SDS011;2698;51.454;6.736;2023-05-31T12:18:43;6.43;;;3.33;;
5351;SDS011;2698;51.454;6.736;2023-05-31T12:21:13;4.40;;;3.93;;
5351;SDS011;2698;51.454;6.736;2023-05-31T12:23:50;9.67;;;3.07;;
5351;SDS011;2698;51.454;6.736;2023-05-31T12:26:17;15.73;;;3.37;;
5351;SDS011;2698;51.454;6.736;2023-05-31T12:28:46;12.13;;;4.20;;
5351;SDS011;2698;51.454;6.736;2023-05-31T12:31:20;8.77;;;3.37;;
5351;SDS011;2698;51.454;6.736;2023-05-31T12:33:51;12.27;;;3.30;;
5351;SDS011;2698;51.454;6.736;2023-05-31T12:36:18;10.33;;;3.83;;
5351;SDS011;2698;51.454;6.736;2023-05-31T12:38:45;16.50;;;4.43;;
5351;SDS011;2698;51.454;6.736;2023-05-31T12:41:12;6.63;;;3.00;;
5351;SDS011;2698;51.454;6.736;2023-05-31T12:43:43;20.20;;;4.30;;
5351;SDS011;2698;51.454;6.736;2023-05-31T12:46:11;9.63;;;3.60;;
5351;SDS011;2698;51.454;6.736;2023-05-31T12:48:46;8.93;;;3.50;;
5351;SDS011;2698;51.454;6.736;2023-05-31T12:51:19;14.33;;;3.00;;
5351;SDS011;2698;51.454;6.736;2023-05-31T12:53:46;8.17;;;3.43;;
5351;SDS011;2698;51.454;6.736;2023-05-31T12:56:13;7.77;;;2.27;;
5351;SDS011;2698;51.454;6.736;2023-05-31T12:58:41;13.43;;;2.70;;
5351;SDS011;2698;51.454;6.736;2023-05-31T13:01:08;10.20;;;3.13;;
5351;SDS011;2698;51.454;6.736;2023-05-31T13:03:35;14.73;;;3.70;;
5351;SDS011;2698;51.454;6.736;2023-05-31T13:06:03;10.43;;;2.60;;
5351;SDS011;2698;51.454;6.736;2023-05-31T13:08:31;5.30;;;3.30;;
5351;SDS011;2698;51.454;6.736;2023-05-31T13:10:58;11.27;;;3.30;;
5351;SDS011;2698;51.454;6.736;2023-05-31T13:13:25;11.30;;;3.20;;
5351;SDS011;2698;51.454;6.736;2023-05-31T13:15:52;12.70;;;3.63;;
5351;SDS011;2698;51.454;6.736;2023-05-31T13:18:19;7.90;;;3.50;;
5351;SDS011;2698;51.454;6.736;2023-05-31T13:20:46;8.73;;;2.93;;
5351;SDS011;2698;51.454;6.736;2023-05-31T13:23:15;12.90;;;3.00;;
5351;SDS011;2698;51.454;6.736;2023-05-31T13:25:42;12.13;;;3.50;;
5351;SDS011;2698;51.454;6.736;2023-05-31T13:28:09;9.60;;;3.30;;
5351;SDS011;2698;51.454;6.736;2023-05-31T13:30:36;10.37;;;3.30;;
5351;SDS011;2698;51.454;6.736;2023-05-31T13:33:04;32.83;;;4.20;;
5351;SDS011;2698;51.454;6.736;2023-05-31T13:35:31;7.50;;;3.67;;
5351;SDS011;2698;51.454;6.736;2023-05-31T13:37:58;6.63;;;3.83;;
5351;SDS011;2698;51.454;6.736;2023-05-31T13:40:26;13.47;;;3.53;;
5351;SDS011;2698;51.454;6.736;2023-05-31T13:42:53;11.00;;;3.67;;
5351;SDS011;2698;51.454;6.736;2023-05-31T13:45:21;5.30;;;3.33;;
5351;SDS011;2698;51.454;6.736;2023-05-31T13:47:48;4.70;;;2.90;;
5351;SDS011;2698;51.454;6.736;2023-05-31T13:50:15;14.63;;;4.00;;
5351;SDS011;2698;51.454;6.736;2023-05-31T13:52:42;6.53;;;3.10;;
5351;SDS011;2698;51.454;6.736;2023-05-31T13:55:09;4.37;;;2.90;;
5351;SDS011;2698;51.454;6.736;2023-05-31T13:57:38;12.07;;;3.90;;
5351;SDS011;2698;51.454;6.736;2023-05-31T14:00:06;13.70;;;3.43;;
5351;SDS011;2698;51.454;6.736;2023-05-31T14:02:33;12.57;;;3.43;;
5351;SDS011;2698;51.454;6.736;2023-05-31T14:05:00;7.70;;;4.00;;
5351;SDS011;2698;51.454;6.736;2023-05-31T14:07:28;18.77;;;4.10;;
5351;SDS011;2698;51.454;6.736;2023-05-31T14:09:56;9.33;;;3.40;;
5351;SDS011;2698;51.454;6.736;2023-05-31T14:12:23;7.90;;;3.00;;
5351;SDS011;2698;51.454;6.736;2023-05-31T14:14:51;12.43;;;3.93;;
5351;SDS011;2698;51.454;6.736;2023-05-31T14:17:18;12.70;;;4.97;;
5351;SDS011;2698;51.454;6.736;2023-05-31T14:19:45;7.00;;;3.80;;
5351;SDS011;2698;51.454;6.736;2023-05-31T14:22:12;12.80;;;3.93;;
5351;SDS011;2698;51.454;6.736;2023-05-31T14:24:39;8.33;;;3.50;;
5351;SDS011;2698;51.454;6.736;2023-05-31T14:27:06;9.07;;;3.67;;
5351;SDS011;2698;51.454;6.736;2023-05-31T14:29:33;8.47;;;3.87;;
5351;SDS011;2698;51.454;6.736;2023-05-31T14:32:02;9.17;;;4.03;;
5351;SDS011;2698;51.454;6.736;2023-05-31T14:34:29;18.93;;;4.20;;
5351;SDS011;2698;51.454;6.736;2023-05-31T14:36:56;4.60;;;3.20;;
5351;SDS011;2698;51.454;6.736;2023-05-31T14:39:24;16.27;;;3.73;;
5351;SDS011;2698;51.454;6.736;2023-05-31T14:41:51;30.57;;;5.30;;
5351;SDS011;2698;51.454;6.736;2023-05-31T14:44:18;12.77;;;4.70;;
5351;SDS011;2698;51.454;6.736;2023-05-31T14:46:46;22.73;;;5.00;;
5351;SDS011;2698;51.454;6.736;2023-05-31T14:49:14;8.00;;;3.50;;
5351;SDS011;2698;51.454;6.736;2023-05-31T14:51:41;10.90;;;3.50;;
5351;SDS011;2698;51.454;6.736;2023-05-31T14:54:08;11.93;;;4.40;;
5351;SDS011;2698;51.454;6.736;2023-05-31T14:56:35;12.73;;;3.13;;
5351;SDS011;2698;51.454;6.736;2023-05-31T14:59:03;9.97;;;3.60;;
5351;SDS011;2698;51.454;6.736;2023-05-31T15:01:30;18.17;;;4.40;;
5351;SDS011;2698;51.454;6.736;2023-05-31T15:03:57;17.63;;;3.97;;
5351;SDS011;2698;51.454;6.736;2023-05-31T15:06:29;6.40;;;3.77;;
5351;SDS011;2698;51.454;6.736;2023-05-31T15:08:56;7.87;;;3.70;;
5351;SDS011;2698;51.454;6.736;2023-05-31T15:11:24;11.03;;;4.40;;